Rosalia, Washington
Current Conditions -  °F | °C
As of 1:53 PM on Sunday 21 Dec 2014 (Local Time) from KGEG Reporting Station
Broken Clouds Broken Clouds  
Wind Chill: 40°   Ceiling: 14000
Heat Index: 47°   Visibility: 10mi
Dew Point: 37°   Wind: 16mph
Humidity: 68%   Direction: 270°W
Pressure: 29.82"   Gusts: 28mph
Location:  47.24°N, 117.37°W
Report Text: KGEG 212153Z 27014G24KT 10SM FEW028 BKN140 BKN200 08/03 A2982 RMK AO2 PK WND 26026/2128 SLP102 T00830028
Loading
Personal Weather Stations






























Interactive Weather Map New forecast layout! Learn more

10-Day Weather Forecast

Advertisements
Track Severe Weather on mobile